Time;durP1;ratioP1;P1;durP2;ratioP2;P2;SDS_P1;SDS_P2;PMS_P1;PMS_P2;Temp;Humidity;BMP_temperature;BMP_pressure;BME280_temperature;BME280_humidity;BME280_pressure;Samples;Min_cycle;Max_cycle;Signal;HPM_P1;HPM_P2
2021/03/31 00:00:13;;;;;;;20.75;15.88;;;12.70;99.90;;;;;;4841778;29;20038;-79
2021/03/31 00:02:38;;;;;;;28.42;16.95;;;12.70;99.90;;;;;;4846827;29;20022;-80
2021/03/31 00:05:08;;;;;;;27.63;16.27;;;12.60;99.90;;;;;;4842195;29;20037;-80
2021/03/31 00:07:33;;;;;;;25.35;14.73;;;12.60;99.90;;;;;;4847164;29;20473;-76
2021/03/31 00:09:59;;;;;;;22.15;15.13;;;12.50;99.90;;;;;;4844123;29;20137;-77
2021/03/31 00:12:24;;;;;;;21.90;15.23;;;12.50;99.90;;;;;;4824822;29;20055;-83
2021/03/31 00:14:50;;;;;;;23.17;14.60;;;12.50;99.90;;;;;;4836661;29;20106;-83
2021/03/31 00:17:15;;;;;;;21.73;15.35;;;12.40;99.90;;;;;;4833602;29;20092;-76
2021/03/31 00:19:41;;;;;;;24.33;17.15;;;12.40;99.90;;;;;;4844001;29;20034;-81
2021/03/31 00:22:06;;;;;;;32.13;16.02;;;12.40;99.90;;;;;;4827723;29;20022;-79
2021/03/31 00:24:32;;;;;;;23.45;15.82;;;12.40;99.90;;;;;;4847524;29;20086;-79
2021/03/31 00:26:57;;;;;;;23.95;16.55;;;12.40;99.90;;;;;;4841018;29;20174;-75
2021/03/31 00:29:23;;;;;;;23.95;15.38;;;12.30;99.90;;;;;;4844121;29;20049;-75
2021/03/31 00:31:49;;;;;;;21.67;15.27;;;12.40;99.90;;;;;;4833578;29;20049;-76
2021/03/31 00:34:15;;;;;;;23.83;15.25;;;12.30;99.90;;;;;;4837603;29;20026;-79
2021/03/31 00:36:40;;;;;;;22.95;16.48;;;12.30;99.90;;;;;;4843452;29;20045;-80
2021/03/31 00:39:09;;;;;;;26.98;16.17;;;12.30;99.90;;;;;;4835935;29;20474;-75
2021/03/31 00:41:34;;;;;;;26.50;16.63;;;12.20;99.90;;;;;;4850457;29;20038;-81
2021/03/31 00:44:03;;;;;;;24.45;16.05;;;12.20;99.90;;;;;;4843343;29;20070;-84
2021/03/31 00:46:29;;;;;;;25.25;16.45;;;12.10;99.90;;;;;;4837364;29;20090;-84
2021/03/31 00:48:57;;;;;;;29.52;17.33;;;12.00;99.90;;;;;;4840123;29;20456;-81
2021/03/31 00:51:22;;;;;;;24.33;16.95;;;12.00;99.90;;;;;;4828553;29;20396;-86
2021/03/31 00:53:51;;;;;;;27.60;16.73;;;12.00;99.90;;;;;;4832412;29;20086;-84
2021/03/31 00:56:25;;;;;;;24.25;16.10;;;11.90;99.90;;;;;;4834355;29;20442;-85
2021/03/31 00:58:51;;;;;;;25.33;17.08;;;11.90;99.90;;;;;;4831934;29;20030;-86
2021/03/31 01:01:16;;;;;;;29.90;17.67;;;11.80;99.90;;;;;;4830629;29;20034;-86
2021/03/31 01:03:42;;;;;;;25.02;17.17;;;11.80;99.90;;;;;;4832137;29;20082;-83
2021/03/31 01:06:08;;;;;;;24.73;18.05;;;13.50;99.90;;;;;;4839937;29;20034;-87
2021/03/31 01:08:36;;;;;;;25.15;17.33;;;11.80;99.90;;;;;;4832347;29;20106;-84
2021/03/31 01:11:02;;;;;;;25.73;17.58;;;11.80;99.90;;;;;;4834437;29;20565;-87
2021/03/31 01:13:52;;;;;;;28.60;17.60;;;11.80;99.90;;;;;;4831047;29;20065;-82
2021/03/31 01:16:51;;;;;;;27.13;17.73;;;11.70;99.90;;;;;;4831134;29;20046;-83
2021/03/31 01:19:46;;;;;;;32.72;19.20;;;11.70;99.90;;;;;;4824288;29;20067;-84
2021/03/31 01:22:47;;;;;;;29.27;18.38;;;11.60;99.90;;;;;;4832727;29;20102;-78
2021/03/31 01:25:49;;;;;;;26.92;17.67;;;11.60;99.90;;;;;;4833214;29;20531;-86
2021/03/31 01:28:46;;;;;;;29.75;17.58;;;11.60;99.90;;;;;;4833107;29;20105;-86
2021/03/31 01:31:22;;;;;;;33.80;18.77;;;11.50;99.90;;;;;;4834482;29;20092;-85
2021/03/31 01:34:31;;;;;;;31.58;18.73;;;11.50;99.90;;;;;;4839666;29;20048;-85
2021/03/31 01:37:00;;;;;;;37.53;20.08;;;11.50;99.90;;;;;;4840656;29;20086;-82
2021/03/31 01:39:30;;;;;;;31.13;18.95;;;11.50;99.90;;;;;;4837435;29;20063;-85
2021/03/31 01:41:58;;;;;;;38.08;20.30;;;11.40;99.90;;;;;;4835592;29;20053;-77
2021/03/31 01:44:26;;;;;;;29.08;18.70;;;11.40;99.90;;;;;;4837508;29;20026;-80
2021/03/31 01:46:56;;;;;;;32.10;19.90;;;11.30;99.90;;;;;;4833721;29;20068;-88
2021/03/31 01:49:24;;;;;;;31.35;18.90;;;11.30;99.90;;;;;;4836241;29;20027;-85
2021/03/31 01:52:12;;;;;;;32.42;19.98;;;11.30;99.90;;;;;;4837773;29;20103;-87
2021/03/31 01:54:43;;;;;;;36.80;21.02;;;11.30;99.90;;;;;;4837926;29;20026;-81
2021/03/31 01:57:11;;;;;;;29.33;19.35;;;11.30;99.90;;;;;;4843707;29;20575;-83
2021/03/31 01:59:38;;;;;;;32.65;19.50;;;11.20;99.90;;;;;;4842594;29;20029;-84
2021/03/31 02:02:08;;;;;;;27.73;18.23;;;11.20;99.90;;;;;;4838099;29;20026;-79
2021/03/31 02:04:37;;;;;;;32.83;18.40;;;11.10;99.90;;;;;;4836177;29;20393;-84
2021/03/31 02:07:06;;;;;;;30.08;19.75;;;11.10;99.90;;;;;;4830447;29;20045;-81
2021/03/31 02:09:41;;;;;;;24.08;16.60;;;11.20;99.90;;;;;;4828161;29;20497;-86
2021/03/31 02:12:08;;;;;;;29.30;17.55;;;10.90;99.90;;;;;;4829362;29;20389;-81
2021/03/31 02:14:41;;;;;;;26.63;18.42;;;11.00;99.90;;;;;;4828485;29;20030;-87
2021/03/31 02:17:13;;;;;;;27.02;17.95;;;10.90;99.90;;;;;;4829984;29;20033;-82
2021/03/31 02:19:40;;;;;;;26.52;16.88;;;10.90;99.90;;;;;;4832054;29;20030;-80
2021/03/31 02:22:10;;;;;;;30.27;18.83;;;10.90;99.90;;;;;;4833096;29;20034;-85
2021/03/31 02:24:36;;;;;;;27.95;17.77;;;10.80;99.90;;;;;;4831830;29;20038;-81
2021/03/31 02:27:02;;;;;;;26.27;18.27;;;10.80;99.90;;;;;;4832200;29;20041;-83
2021/03/31 02:29:31;;;;;;;32.03;19.63;;;10.70;99.90;;;;;;4837054;29;20034;-80
2021/03/31 02:31:58;;;;;;;27.48;18.95;;;10.60;99.90;;;;;;4815093;29;20038;-85
2021/03/31 02:34:24;;;;;;;30.85;18.80;;;10.60;99.90;;;;;;4831424;29;20030;-86
2021/03/31 02:36:52;;;;;;;36.90;19.70;;;10.60;99.90;;;;;;4835839;29;20050;-82
2021/03/31 02:39:22;;;;;;;26.30;18.15;;;10.50;99.90;;;;;;4837184;29;20034;-79
2021/03/31 02:41:51;;;;;;;27.45;17.88;;;10.50;99.90;;;;;;4843107;29;20050;-83
2021/03/31 02:44:20;;;;;;;34.17;18.67;;;10.50;99.90;;;;;;4852537;29;20037;-82
2021/03/31 02:46:47;;;;;;;30.55;18.52;;;10.40;99.90;;;;;;4837791;29;20511;-78
2021/03/31 02:49:14;;;;;;;28.23;18.80;;;10.50;99.90;;;;;;4854157;29;20057;-85
2021/03/31 02:51:45;;;;;;;32.65;19.08;;;10.40;99.90;;;;;;4852516;29;20034;-83
2021/03/31 02:54:14;;;;;;;28.63;17.95;;;10.40;99.90;;;;;;4851562;29;20038;-84
2021/03/31 02:56:41;;;;;;;28.73;18.73;;;10.40;99.90;;;;;;4856056;29;20065;-84
2021/03/31 02:59:07;;;;;;;28.88;17.48;;;10.40;99.90;;;;;;4858360;29;20033;-83
2021/03/31 03:01:33;;;;;;;28.48;17.88;;;10.30;99.90;;;;;;4855102;29;20041;-80
2021/03/31 03:04:03;;;;;;;29.13;18.42;;;10.40;99.90;;;;;;4858332;29;20034;-83
2021/03/31 03:06:30;;;;;;;27.13;18.63;;;10.30;99.90;;;;;;4858640;29;20044;-82
2021/03/31 03:08:57;;;;;;;28.48;18.92;;;10.30;99.90;;;;;;4859746;29;20033;-79
2021/03/31 03:11:24;;;;;;;26.13;18.20;;;10.30;99.90;;;;;;4854656;29;20045;-81
2021/03/31 03:13:51;;;;;;;30.50;19.08;;;10.30;99.90;;;;;;4856406;29;20079;-81
2021/03/31 03:16:17;;;;;;;33.60;19.88;;;10.30;99.90;;;;;;4862650;29;20053;-84
2021/03/31 03:18:43;;;;;;;26.75;17.80;;;10.20;99.90;;;;;;4865273;29;20030;-85
2021/03/31 03:21:14;;;;;;;31.23;18.38;;;10.20;99.90;;;;;;4862599;29;20073;-80
2021/03/31 03:23:44;;;;;;;;;;;10.20;99.90;;;;;;4864199;29;20034;-80
2021/03/31 03:26:13;;;;;;;27.40;17.65;;;10.10;99.90;;;;;;4857622;29;20378;-80
2021/03/31 03:28:44;;;;;;;24.60;17.17;;;10.10;99.90;;;;;;4852776;29;20033;-83
2021/03/31 03:31:11;;;;;;;28.77;18.17;;;10.10;99.90;;;;;;4850215;29;20074;-84
2021/03/31 03:33:38;;;;;;;33.67;17.55;;;10.00;99.90;;;;;;4848596;29;20022;-84
2021/03/31 03:36:06;;;;;;;27.15;17.23;;;10.10;99.90;;;;;;4857795;29;20041;-85
2021/03/31 03:38:35;;;;;;;26.65;17.23;;;10.00;99.90;;;;;;4851839;29;20030;-87
2021/03/31 03:41:06;;;;;;;26.65;17.50;;;10.00;99.90;;;;;;4848815;29;20074;-83
2021/03/31 03:43:33;;;;;;;32.90;19.10;;;;;;;;;;4838132;29;20038;-84
2021/03/31 03:45:59;;;;;;;24.98;18.30;;;10.00;99.90;;;;;;4834650;29;20057;-79
2021/03/31 03:48:25;;;;;;;29.65;18.58;;;10.00;99.90;;;;;;4836736;29;20030;-81
2021/03/31 03:50:51;;;;;;;27.60;19.20;;;10.00;99.90;;;;;;4834555;29;20048;-81
2021/03/31 03:53:18;;;;;;;28.25;17.00;;;10.00;99.90;;;;;;4834799;29;20046;-77
2021/03/31 03:55:44;;;;;;;26.83;18.13;;;10.00;99.90;;;;;;4838770;29;20121;-78
2021/03/31 03:58:09;;;;;;;27.05;19.60;;;10.00;99.90;;;;;;4831903;29;20023;-78
2021/03/31 04:00:38;;;;;;;26.63;18.20;;;9.90;99.90;;;;;;4840680;29;20050;-76
2021/03/31 04:03:04;;;;;;;29.88;19.02;;;9.80;99.90;;;;;;4838368;29;20110;-77
2021/03/31 04:05:30;;;;;;;34.63;19.55;;;9.90;99.90;;;;;;4839439;29;20026;-80
2021/03/31 04:07:56;;;;;;;32.67;18.60;;;9.80;99.90;;;;;;4844785;29;20473;-83
2021/03/31 04:10:40;;;;;;;30.95;17.80;;;9.80;99.90;;;;;;4843062;29;20046;-85
2021/03/31 04:13:06;;;;;;;28.38;19.00;;;9.70;99.90;;;;;;4838531;29;20041;-86
2021/03/31 04:15:33;;;;;;;28.77;18.30;;;9.70;99.90;;;;;;4837211;29;20549;-81
2021/03/31 04:18:01;;;;;;;29.30;18.65;;;9.70;99.90;;;;;;4834279;29;20054;-86
2021/03/31 04:20:30;;;;;;;28.45;18.60;;;9.70;99.90;;;;;;4833573;29;20033;-87
2021/03/31 04:22:56;;;;;;;27.95;18.05;;;9.70;99.90;;;;;;4833121;29;20030;-85
2021/03/31 04:25:24;;;;;;;30.05;18.27;;;9.70;99.90;;;;;;4833810;29;20042;-85
2021/03/31 04:27:51;;;;;;;30.35;17.42;;;9.70;99.90;;;;;;4834320;29;20022;-86
2021/03/31 04:30:20;;;;;;;27.65;18.20;;;9.60;99.90;;;;;;4831655;29;20111;-81
2021/03/31 04:32:48;;;;;;;30.90;19.13;;;9.60;99.90;;;;;;4815848;29;20031;-79
2021/03/31 04:35:19;;;;;;;31.42;19.88;;;9.60;99.90;;;;;;4833686;29;20087;-79
2021/03/31 04:37:45;;;;;;;30.75;19.15;;;;;;;;;;4826881;29;20121;-84
2021/03/31 04:40:20;;;;;;;37.95;23.23;;;9.50;99.90;;;;;;4833274;29;20488;-80
2021/03/31 04:42:46;;;;;;;43.03;23.15;;;9.50;99.90;;;;;;4832858;29;20050;-79
2021/03/31 04:45:16;;;;;;;36.05;19.83;;;9.40;99.90;;;;;;4831857;29;20035;-86
2021/03/31 04:47:42;;;;;;;32.33;20.42;;;9.50;99.90;;;;;;4831214;29;20583;-88
2021/03/31 04:50:10;;;;;;;33.45;19.55;;;9.40;99.90;;;;;;4832035;29;20470;-84
2021/03/31 04:52:37;;;;;;;31.05;20.08;;;9.50;99.90;;;;;;4822594;29;20063;-85
2021/03/31 04:55:03;;;;;;;35.63;18.38;;;9.50;99.90;;;;;;4842749;29;20045;-85
2021/03/31 04:57:29;;;;;;;26.60;17.35;;;9.50;99.90;;;;;;4842807;29;20045;-86
2021/03/31 04:59:55;;;;;;;37.67;18.58;;;9.50;99.90;;;;;;4826903;29;20097;-85
2021/03/31 05:02:21;;;;;;;29.38;18.02;;;;;;;;;;4841588;29;20054;-84
2021/03/31 05:04:46;;;;;;;29.55;19.45;;;9.50;99.90;;;;;;4843013;29;20065;-81
2021/03/31 05:07:12;;;;;;;26.75;16.65;;;9.50;99.90;;;;;;4836017;29;20083;-84
2021/03/31 05:09:41;;;;;;;22.48;15.82;;;;;;;;;;4835668;29;20459;-85
2021/03/31 05:12:08;;;;;;;31.60;16.77;;;9.50;99.90;;;;;;4833850;29;20086;-87
2021/03/31 05:14:34;;;;;;;26.85;15.68;;;9.40;99.90;;;;;;4838565;29;20038;-79
2021/03/31 05:17:02;;;;;;;30.42;15.82;;;9.50;99.90;;;;;;4839024;29;20062;-85
2021/03/31 05:19:33;;;;;;;25.42;15.93;;;9.50;99.90;;;;;;4844147;29;20034;-83
2021/03/31 05:21:59;;;;;;;23.57;16.03;;;9.50;99.90;;;;;;4846786;29;20022;-79
2021/03/31 05:24:24;;;;;;;28.45;17.30;;;9.50;99.90;;;;;;4843844;29;20034;-86
2021/03/31 05:26:51;;;;;;;26.58;15.85;;;;;;;;;;4834644;29;20042;-86
2021/03/31 05:29:42;;;;;;;30.60;15.48;;;9.50;99.90;;;;;;4845958;29;20039;-82
2021/03/31 05:32:08;;;;;;;28.45;16.27;;;9.50;99.90;;;;;;4857266;29;20070;-76
2021/03/31 05:34:34;;;;;;;30.30;17.55;;;9.50;99.90;;;;;;4853278;29;20041;-77
2021/03/31 05:37:00;;;;;;;29.05;16.63;;;9.60;99.90;;;;;;4848139;29;20026;-78
2021/03/31 05:39:26;;;;;;;22.15;15.77;;;9.60;99.90;;;;;;4848236;29;20114;-82
2021/03/31 05:41:52;;;;;;;23.70;14.93;;;;;;;;;;5166926;24;20045;-77
2021/03/31 05:44:19;;;;;;;25.73;15.90;;;9.60;99.90;;;;;;4886941;29;20025;-85
2021/03/31 05:46:45;;;;;;;28.60;16.02;;;10.20;99.90;;;;;;4902001;29;20039;-80
2021/03/31 05:49:12;;;;;;;29.13;15.95;;;10.10;99.90;;;;;;4899393;29;20041;-83
2021/03/31 05:51:37;;;;;;;27.80;16.02;;;10.80;99.90;;;;;;4894489;29;20048;-79
2021/03/31 05:54:03;;;;;;;26.52;15.90;;;11.20;99.90;;;;;;4904137;29;20048;-79
2021/03/31 05:56:32;;;;;;;28.45;15.07;;;11.20;99.90;;;;;;4892041;29;20071;-79
2021/03/31 05:59:02;;;;;;;26.98;15.60;;;11.70;99.90;;;;;;4893881;29;20045;-82
2021/03/31 06:01:29;;;;;;;28.33;15.35;;;12.30;99.90;;;;;;4877263;29;20025;-78
2021/03/31 06:03:57;;;;;;;26.80;14.90;;;12.70;99.90;;;;;;4889295;29;20033;-76
2021/03/31 06:06:23;;;;;;;21.63;15.77;;;13.00;99.90;;;;;;4896787;29;20345;-82
2021/03/31 06:08:49;;;;;;;29.30;15.20;;;13.40;99.90;;;;;;4889305;29;20063;-85
2021/03/31 06:11:17;;;;;;;26.85;14.02;;;13.80;99.90;;;;;;4894902;29;20041;-80
2021/03/31 06:13:53;;;;;;;27.77;15.88;;;14.30;99.90;;;;;;4893635;29;20032;-84
2021/03/31 06:16:44;;;;;;;23.35;15.43;;;14.70;97.90;;;;;;4893248;29;20033;-87
2021/03/31 06:19:18;;;;;;;28.75;16.58;;;15.20;95.40;;;;;;4886176;29;20033;-88
2021/03/31 06:22:29;;;;;;;34.65;17.13;;;15.50;93.40;;;;;;4882946;29;20033;-89
2021/03/31 06:25:25;;;;;;;29.42;14.75;;;15.90;91.40;;;;;;4894609;29;20033;-85
2021/03/31 06:27:57;;;;;;;21.00;15.40;;;16.10;89.00;;;;;;4904039;29;20056;-77
2021/03/31 06:30:24;;;;;;;25.27;16.40;;;16.00;89.30;;;;;;4897255;29;20045;-79
2021/03/31 06:32:54;;;;;;;23.65;16.45;;;15.80;90.40;;;;;;4902258;29;20025;-80
2021/03/31 06:35:25;;;;;;;25.85;15.48;;;15.70;91.00;;;;;;4903820;29;20104;-85
2021/03/31 06:38:03;;;;;;;31.23;16.00;;;16.40;87.40;;;;;;4894533;29;20040;-86
2021/03/31 06:40:33;;;;;;;31.23;16.38;;;17.30;82.20;;;;;;4885579;29;20037;-86
2021/03/31 06:43:37;;;;;;;28.70;17.38;;;18.50;75.20;;;;;;4906376;29;20055;-85
2021/03/31 06:46:10;;;;;;;26.67;17.70;;;19.70;68.70;;;;;;4906196;29;20070;-85
2021/03/31 06:48:37;;;;;;;26.08;16.73;;;20.20;65.00;;;;;;4908141;29;20095;-84
2021/03/31 06:51:03;;;;;;;25.52;16.33;;;20.30;63.60;;;;;;4903508;29;20064;-86
2021/03/31 06:53:30;;;;;;;29.20;16.60;;;21.00;61.30;;;;;;4894345;29;20040;-83
2021/03/31 06:56:05;;;;;;;25.88;16.55;;;22.00;58.50;;;;;;4908727;29;20111;-81
2021/03/31 06:58:35;;;;;;;31.13;21.48;;;22.60;55.80;;;;;;4907915;29;20037;-81
2021/03/31 07:01:00;;;;;;;29.50;16.57;;;22.30;56.20;;;;;;4905940;29;20052;-82
2021/03/31 07:03:27;;;;;;;20.73;15.30;;;22.30;55.40;;;;;;4904983;29;20071;-83
2021/03/31 07:05:52;;;;;;;23.45;15.00;;;22.00;55.90;;;;;;4906876;29;20038;-83
2021/03/31 07:08:21;;;;;;;27.17;15.95;;;22.60;55.00;;;;;;4904586;29;20032;-85
2021/03/31 07:10:52;;;;;;;26.17;18.50;;;22.90;53.70;;;;;;4902446;29;20399;-83
2021/03/31 07:13:28;;;;;;;18.65;13.25;;;23.90;52.10;;;;;;4902622;29;20031;-80
2021/03/31 07:15:57;;;;;;;22.02;14.80;;;24.00;52.00;;;;;;4909608;29;20124;-81
2021/03/31 07:18:25;;;;;;;29.38;18.60;;;24.80;50.50;;;;;;4909614;29;20028;-85
2021/03/31 07:20:51;;;;;;;23.23;18.25;;;25.10;49.60;;;;;;4914817;29;20439;-81
2021/03/31 07:23:19;;;;;;;22.42;14.57;;;24.90;49.50;;;;;;4905321;29;20047;-80
2021/03/31 07:25:49;;;;;;;20.48;13.98;;;24.60;49.30;;;;;;4902121;29;20036;-81
2021/03/31 07:28:19;;;;;;;17.23;13.18;;;25.60;48.30;;;;;;4918030;29;20573;-82
2021/03/31 07:30:46;;;;;;;22.10;16.45;;;25.10;48.40;;;;;;4914567;29;20367;-81
2021/03/31 07:33:18;;;;;;;18.02;13.73;;;25.10;48.00;;;;;;4911501;29;20052;-81
2021/03/31 07:35:45;;;;;;;18.75;13.65;;;25.00;48.50;;;;;;4911800;29;20088;-82
2021/03/31 07:38:14;;;;;;;14.85;12.43;;;24.50;49.80;;;;;;4902882;29;20033;-83
2021/03/31 07:40:41;;;;;;;17.83;12.63;;;24.90;49.00;;;;;;4906069;29;20119;-83
2021/03/31 07:43:14;;;;;;;16.60;11.73;;;24.80;48.70;;;;;;4907432;29;20053;-82
2021/03/31 07:45:46;;;;;;;15.68;11.75;;;24.80;48.90;;;;;;4905901;29;20024;-79
2021/03/31 07:48:12;;;;;;;15.40;11.23;;;25.50;47.80;;;;;;4911782;29;20141;-83
2021/03/31 07:50:38;;;;;;;13.48;11.07;;;24.80;48.60;;;;;;4906506;29;20047;-86
2021/03/31 07:53:06;;;;;;;14.98;11.38;;;23.60;50.60;;;;;;4904604;29;20024;-86
2021/03/31 07:55:46;;;;;;;17.33;11.57;;;24.00;50.30;;;;;;4907116;29;20028;-81
2021/03/31 07:58:28;;;;;;;15.35;11.02;;;24.90;48.70;;;;;;4905247;29;20032;-82
2021/03/31 08:00:58;;;;;;;17.20;10.60;;;25.40;47.90;;;;;;4902273;29;20037;-80
2021/03/31 08:03:29;;;;;;;14.40;11.52;;;25.90;46.90;;;;;;4903958;29;20029;-84
2021/03/31 08:06:07;;;;;;;16.77;10.60;;;24.30;49.10;;;;;;4905930;29;20499;-77
2021/03/31 08:08:46;;;;;;;16.35;10.65;;;23.90;50.00;;;;;;4907859;29;20028;-81
2021/03/31 08:11:12;;;;;;;13.75;11.07;;;24.20;49.50;;;;;;4911100;29;20032;-82
2021/03/31 08:13:45;;;;;;;14.18;11.27;;;23.30;50.70;;;;;;4914847;29;20043;-79
2021/03/31 08:16:34;;;;;;;20.58;11.93;;;23.30;51.20;;;;;;4909856;29;20035;-79
2021/03/31 08:19:05;;;;;;;16.17;10.60;;;24.30;50.10;;;;;;4918730;29;20032;-79
2021/03/31 08:21:32;;;;;;;15.27;12.45;;;25.90;47.90;;;;;;4900336;29;20036;-80
2021/03/31 08:24:00;;;;;;;14.38;11.10;;;25.40;47.90;;;;;;4903709;29;20115;-82
2021/03/31 08:26:42;;;;;;;15.48;11.35;;;25.50;47.60;;;;;;4888716;29;20129;-83
2021/03/31 08:29:21;;;;;;;17.85;11.70;;;25.80;46.70;;;;;;4883556;29;20033;-81
2021/03/31 08:31:56;;;;;;;15.73;11.80;;;25.60;47.50;;;;;;4885728;29;20445;-81
2021/03/31 08:34:23;;;;;;;15.77;11.30;;;25.60;47.60;;;;;;4899856;29;20059;-84
2021/03/31 08:36:50;;;;;;;17.00;11.23;;;25.80;47.80;;;;;;4902881;29;20036;-83
2021/03/31 08:39:15;;;;;;;15.50;11.60;;;26.60;46.10;;;;;;4893003;29;20104;-83
2021/03/31 08:41:53;;;;;;;15.93;12.07;;;26.00;46.90;;;;;;4888242;29;20131;-80
2021/03/31 08:44:23;;;;;;;17.38;12.63;;;26.80;46.60;;;;;;4887202;29;20039;-76
2021/03/31 08:46:49;;;;;;;18.42;12.18;;;27.10;44.70;;;;;;4889288;29;20040;-79
2021/03/31 08:49:24;;;;;;;17.92;13.27;;;27.30;44.50;;;;;;4897164;29;20060;-80
2021/03/31 08:51:52;;;;;;;17.35;13.43;;;27.10;44.00;;;;;;4904358;29;20047;-83
2021/03/31 08:54:50;;;;;;;20.15;12.95;;;27.00;44.40;;;;;;4896114;29;20031;-85
2021/03/31 08:57:21;;;;;;;17.58;13.48;;;29.50;40.50;;;;;;4880860;29;20061;-83
2021/03/31 08:59:52;;;;;;;19.52;13.27;;;29.40;40.70;;;;;;4890138;29;20139;-83
2021/03/31 09:02:23;;;;;;;17.90;12.93;;;29.80;40.00;;;;;;4897598;29;20021;-82
2021/03/31 09:04:53;;;;;;;19.42;14.73;;;30.10;39.70;;;;;;4873577;29;20028;-81
2021/03/31 09:07:19;;;;;;;19.33;13.48;;;29.70;39.60;;;;;;4882354;29;20066;-79
2021/03/31 09:09:45;;;;;;;20.52;14.23;;;30.30;38.70;;;;;;4880041;29;20041;-83
2021/03/31 09:12:16;;;;;;;19.95;15.05;;;30.20;38.40;;;;;;4877958;29;20480;-79
2021/03/31 09:14:54;;;;;;;23.65;16.35;;;30.60;37.50;;;;;;4881069;29;20041;-79
2021/03/31 09:17:22;;;;;;;20.13;15.85;;;30.80;37.20;;;;;;4879505;29;20059;-79
2021/03/31 09:19:53;;;;;;;22.80;16.17;;;31.30;37.00;;;;;;4899334;29;20040;-77
2021/03/31 09:22:22;;;;;;;21.17;16.52;;;31.80;36.40;;;;;;4888919;29;20043;-78
2021/03/31 09:25:00;;;;;;;21.27;16.80;;;31.00;36.20;;;;;;4880037;29;20044;-79
2021/03/31 09:27:32;;;;;;;20.77;16.90;;;31.20;36.20;;;;;;4896329;29;20024;-78
2021/03/31 09:30:04;;;;;;;23.70;17.08;;;30.70;36.20;;;;;;4900267;29;20036;-79
2021/03/31 09:32:37;;;;;;;21.02;16.13;;;30.90;35.40;;;;;;4874024;29;21383;-77
2021/03/31 09:35:09;;;;;;;20.60;16.77;;;30.90;35.20;;;;;;4895946;29;20085;-76
2021/03/31 09:37:43;;;;;;;18.80;16.10;;;31.00;35.80;;;;;;4890863;29;20461;-75
2021/03/31 09:40:17;;;;;;;21.88;18.15;;;31.40;35.50;;;;;;4878563;29;20319;-76
2021/03/31 09:42:43;;;;;;;27.85;16.92;;;30.50;34.70;;;;;;4895809;29;20046;-75
2021/03/31 09:45:10;;;;;;;24.42;18.35;;;31.20;34.30;;;;;;4912325;29;20036;-82
2021/03/31 09:47:38;;;;;;;23.17;16.83;;;31.40;34.40;;;;;;4909764;29;20036;-76
2021/03/31 09:50:13;;;;;;;21.73;17.08;;;31.30;34.20;;;;;;4904860;29;20076;-76
2021/03/31 09:52:39;;;;;;;22.10;17.23;;;31.50;33.90;;;;;;4903353;29;20032;-76
2021/03/31 09:55:11;;;;;;;23.23;19.55;;;31.20;33.10;;;;;;4896894;29;20431;-76
2021/03/31 09:57:38;;;;;;;21.95;15.52;;;30.60;33.60;;;;;;4903530;29;20389;-76
2021/03/31 10:00:15;;;;;;;18.80;15.30;;;30.70;31.80;;;;;;4902700;29;20020;-75
2021/03/31 10:02:52;;;;;;;16.35;14.65;;;30.90;31.00;;;;;;4900323;29;20024;-79
2021/03/31 10:05:20;;;;;;;17.08;14.68;;;30.90;31.40;;;;;;4900975;29;20561;-80
2021/03/31 10:08:10;;;;;;;20.83;16.90;;;31.10;31.40;;;;;;4912057;29;20394;-79
2021/03/31 10:10:59;;;;;;;19.55;16.58;;;30.90;31.90;;;;;;4906893;29;20144;-81
2021/03/31 10:13:37;;;;;;;21.17;16.03;;;31.80;31.60;;;;;;4904407;29;20057;-82
2021/03/31 10:16:05;;;;;;;16.58;14.70;;;31.80;31.20;;;;;;4906785;29;20425;-81
2021/03/31 10:18:32;;;;;;;16.80;14.90;;;31.30;31.30;;;;;;4907944;29;20391;-82
2021/03/31 10:21:00;;;;;;;19.33;16.90;;;32.40;31.50;;;;;;4907868;29;20028;-81
2021/03/31 10:23:31;;;;;;;19.55;14.43;;;31.90;31.30;;;;;;4906129;29;20051;-79
2021/03/31 10:26:16;;;;;;;14.95;13.40;;;30.40;32.30;;;;;;4899366;29;20107;-80
2021/03/31 10:28:42;;;;;;;16.65;14.07;;;31.90;31.80;;;;;;4905627;29;20028;-82
2021/03/31 10:31:24;;;;;;;18.88;14.10;;;31.30;32.20;;;;;;4902286;29;20092;-81
2021/03/31 10:33:51;;;;;;;15.25;13.57;;;31.40;31.90;;;;;;4903309;29;20025;-81
2021/03/31 10:50:30;;;;;;;21.05;13.27;;;31.40;32.90;;;;;;4902522;29;20506;-79
2021/03/31 10:52:59;;;;;;;16.67;14.45;;;32.20;32.20;;;;;;4905472;29;20453;-81
2021/03/31 10:55:29;;;;;;;15.70;14.07;;;31.90;32.10;;;;;;4907169;29;20048;-78
2021/03/31 10:57:54;;;;;;;17.15;14.23;;;32.00;32.60;;;;;;4915245;29;20032;-80
2021/03/31 11:00:21;;;;;;;21.30;16.05;;;32.20;32.70;;;;;;4903101;29;20107;-80
2021/03/31 11:02:46;;;;;;;14.57;12.27;;;32.30;31.90;;;;;;4888383;29;20020;-79
2021/03/31 11:05:13;;;;;;;16.45;13.82;;;32.20;32.20;;;;;;4911940;29;20164;-80
2021/03/31 11:07:39;;;;;;;17.58;14.65;;;31.80;32.30;;;;;;4908245;29;20028;-82
2021/03/31 11:10:05;;;;;;;18.63;14.43;;;32.30;31.70;;;;;;4897244;29;20048;-82
2021/03/31 11:12:30;;;;;;;17.55;13.38;;;32.50;32.10;;;;;;4905539;29;20409;-81
2021/03/31 11:14:58;;;;;;;18.48;13.30;;;32.20;32.20;;;;;;4905703;29;20036;-81
2021/03/31 11:28:17;;;;;;;15.70;13.85;;;31.00;32.50;;;;;;4830590;29;20345;-81
2021/03/31 11:30:42;;;;;;;16.60;12.85;;;31.20;32.50;;;;;;4888716;29;20055;-80
2021/03/31 11:33:08;;;;;;;16.55;13.98;;;30.70;33.10;;;;;;4894218;29;20114;-80
2021/03/31 11:35:34;;;;;;;16.90;12.85;;;31.30;32.10;;;;;;4906017;29;20032;-82
2021/03/31 11:37:59;;;;;;;20.92;13.10;;;31.40;32.80;;;;;;4907380;29;20056;-80
2021/03/31 11:40:25;;;;;;;21.02;13.90;;;31.50;31.30;;;;;;4904346;29;20043;-80
2021/03/31 11:42:51;;;;;;;15.05;12.13;;;31.70;32.20;;;;;;4906171;29;20072;-81
2021/03/31 11:45:16;;;;;;;15.55;13.43;;;31.50;31.80;;;;;;4910621;29;20028;-80
2021/03/31 11:47:42;;;;;;;16.60;14.57;;;31.60;31.60;;;;;;4909882;29;20037;-80
2021/03/31 11:50:08;;;;;;;14.80;12.40;;;31.40;31.70;;;;;;4909462;29;20143;-80
2021/03/31 11:52:34;;;;;;;17.13;13.85;;;31.30;31.80;;;;;;4907367;29;20095;-81
2021/03/31 11:54:59;;;;;;;16.98;12.50;;;30.80;32.10;;;;;;4905709;29;20041;-80
2021/03/31 11:57:25;;;;;;;15.15;13.38;;;30.60;32.70;;;;;;4906266;29;20080;-80
2021/03/31 11:59:51;;;;;;;17.65;12.30;;;30.90;32.40;;;;;;4905077;29;20032;-81
2021/03/31 12:02:16;;;;;;;16.52;13.35;;;30.90;32.20;;;;;;4907537;29;20040;-80
2021/03/31 12:04:42;;;;;;;15.23;12.65;;;;;;;;;;4912258;29;20028;-81
2021/03/31 12:07:09;;;;;;;17.10;13.07;;;31.60;30.90;;;;;;4910356;29;20076;-81
2021/03/31 12:09:42;;;;;;;14.82;13.07;;;31.00;31.30;;;;;;4913894;29;20036;-76
2021/03/31 12:12:13;;;;;;;15.45;12.52;;;30.30;31.80;;;;;;4911211;29;20036;-76
2021/03/31 12:14:42;;;;;;;14.70;12.63;;;30.20;31.70;;;;;;4896886;29;20028;-78
2021/03/31 12:17:08;;;;;;;14.48;11.95;;;30.00;31.90;;;;;;4905518;29;20032;-78
2021/03/31 12:19:34;;;;;;;15.80;12.98;;;30.50;32.10;;;;;;4907337;29;20103;-79
2021/03/31 12:22:00;;;;;;;14.63;12.88;;;31.20;31.30;;;;;;4907831;29;20119;-79
2021/03/31 12:24:26;;;;;;;15.77;11.93;;;30.70;31.50;;;;;;4907828;29;20033;-79
2021/03/31 12:26:52;;;;;;;16.05;12.65;;;30.20;32.50;;;;;;4894503;29;20472;-78
2021/03/31 12:29:18;;;;;;;15.57;12.98;;;29.90;31.80;;;;;;4901682;29;20031;-81
2021/03/31 12:31:45;;;;;;;16.48;14.15;;;30.10;32.40;;;;;;4909826;29;20064;-79
2021/03/31 12:34:10;;;;;;;14.18;11.30;;;31.10;32.10;;;;;;4899561;29;20872;-78
2021/03/31 12:36:37;;;;;;;14.52;12.00;;;31.20;31.40;;;;;;4907192;29;20039;-78
2021/03/31 12:39:04;;;;;;;13.57;11.57;;;31.70;30.80;;;;;;4905442;29;20040;-79
2021/03/31 12:41:31;;;;;;;14.65;12.57;;;32.00;31.20;;;;;;4894710;29;20076;-79
2021/03/31 12:43:57;;;;;;;14.35;12.13;;;33.20;30.90;;;;;;4906001;29;20028;-79
2021/03/31 12:46:24;;;;;;;15.40;11.93;;;31.70;30.90;;;;;;4910921;29;20091;-80
2021/03/31 12:48:49;;;;;;;15.98;12.95;;;31.00;31.40;;;;;;4909690;29;20036;-79
2021/03/31 12:51:20;;;;;;;15.95;13.43;;;30.20;31.90;;;;;;4905833;29;20058;-78
2021/03/31 12:53:49;;;;;;;20.30;13.65;;;29.90;32.90;;;;;;4906211;29;20039;-80
2021/03/31 12:56:15;;;;;;;14.82;10.75;;;30.20;32.70;;;;;;4903869;29;20020;-79
2021/03/31 12:58:41;;;;;;;11.43;9.50;;;30.60;32.40;;;;;;4898344;29;20079;-79
2021/03/31 13:01:13;;;;;;;13.98;11.45;;;30.70;31.50;;;;;;4908350;29;20024;-79
2021/03/31 13:03:39;;;;;;;15.18;11.10;;;31.00;30.70;;;;;;4915514;29;20028;-79
2021/03/31 13:06:04;;;;;;;13.32;11.25;;;30.40;31.60;;;;;;4915076;29;20510;-80
2021/03/31 13:08:30;;;;;;;14.25;10.43;;;29.70;31.40;;;;;;4911751;29;20036;-78